Time;durP1;ratioP1;P1;durP2;ratioP2;P2;SDS_P1;SDS_P2;PMS_P1;PMS_P2;Temp;Humidity;BMP_temperature;BMP_pressure;BME280_temperature;BME280_humidity;BME280_pressure;Samples;Min_cycle;Max_cycle;Signal;HPM_P1;HPM_P2
2022/02/03 00:02:20;;;;;;;3.45;2.10;;;6.80;91.10;;;;;;5077939;28;20189;-66
2022/02/03 00:04:55;;;;;;;3.83;2.00;;;6.90;91.00;;;;;;5080155;28;20193;-66
2022/02/03 00:07:31;;;;;;;4.55;1.88;;;6.90;91.00;;;;;;5074420;28;20190;-66
2022/02/03 00:10:26;;;;;;;4.07;1.73;;;6.90;90.90;;;;;;5074698;28;20303;-66
2022/02/03 00:26:45;;;;;;;4.85;1.60;;;6.60;91.30;;;;;;5103912;28;20253;-66
2022/02/03 00:29:28;;;;;;;2.92;1.63;;;6.50;91.20;;;;;;5115479;28;20228;-66
2022/02/03 00:32:04;;;;;;;3.20;1.95;;;6.50;91.40;;;;;;5097042;28;20189;-66
2022/02/03 00:34:43;;;;;;;2.45;1.70;;;6.40;91.60;;;;;;5105584;28;20188;-68
2022/02/03 00:37:17;;;;;;;3.38;1.52;;;6.40;91.60;;;;;;5109321;28;20195;-66
2022/02/03 00:50:50;;;;;;;3.08;2.03;;;6.30;92.20;;;;;;5102336;28;20236;-66
2022/02/03 00:53:20;;;;;;;6.13;1.52;;;6.30;92.40;;;;;;5094152;28;20284;-67
2022/02/03 00:55:54;;;;;;;2.78;1.27;;;6.30;92.20;;;;;;5095562;28;20196;-66
2022/02/03 00:58:25;;;;;;;3.05;1.70;;;6.40;92.10;;;;;;5103296;28;20647;-67
2022/02/03 01:00:59;;;;;;;3.25;1.45;;;6.40;92.10;;;;;;5094187;28;20220;-66
2022/02/03 01:03:29;;;;;;;2.40;1.35;;;6.40;92.20;;;;;;5099619;28;20650;-66
2022/02/03 01:05:59;;;;;;;2.05;1.27;;;6.30;92.40;;;;;;5114469;28;20188;-66
2022/02/03 01:08:30;;;;;;;2.35;1.25;;;6.20;92.70;;;;;;5100237;28;20227;-66
2022/02/03 01:11:07;;;;;;;3.30;1.60;;;6.20;92.90;;;;;;5093837;28;20212;-66
2022/02/03 01:13:42;;;;;;;3.08;1.45;;;6.20;93.00;;;;;;5107670;28;20230;-67
2022/02/03 01:16:19;;;;;;;2.28;1.45;;;6.20;93.00;;;;;;5114252;28;20207;-66
2022/02/03 01:19:28;;;;;;;2.47;1.63;;;6.20;93.00;;;;;;5099074;28;20195;-66
2022/02/03 01:44:25;;;;;;;2.80;1.45;;;6.30;93.00;;;;;;5113841;28;20291;-67
2022/02/03 01:47:01;;;;;;;2.40;1.25;;;6.20;93.10;;;;;;5106872;28;20602;-66
2022/02/03 01:51:38;;;;;;;4.00;2.38;;;6.20;93.30;;;;;;5093414;28;20189;-69
2022/02/03 01:52:32;;;;;;;2.30;1.35;;;6.20;93.60;;;;;;5102954;28;20184;-69
2022/02/03 01:55:00;;;;;;;3.83;1.90;;;6.20;93.70;;;;;;5113679;27;20199;-68
2022/02/03 01:57:36;;;;;;;5.95;2.25;;;6.20;93.70;;;;;;5102861;28;20190;-66
2022/02/03 02:00:08;;;;;;;2.75;1.30;;;6.20;93.90;;;;;;5107905;28;20198;-66
2022/02/03 02:02:38;;;;;;;2.67;1.17;;;6.30;94.10;;;;;;5102213;28;20181;-66
2022/02/03 02:05:18;;;;;;;2.70;1.10;;;6.30;94.10;;;;;;5092948;28;20189;-66
2022/02/03 02:08:04;;;;;;;1.70;1.02;;;6.40;94.00;;;;;;5099866;28;20307;-66
2022/02/03 02:11:00;;;;;;;2.47;1.10;;;6.40;93.90;;;;;;5113267;28;20697;-66
2022/02/03 02:13:50;;;;;;;1.80;1.00;;;6.40;94.10;;;;;;5096540;28;20597;-67
2022/02/03 02:16:42;;;;;;;1.95;1.05;;;6.40;93.80;;;;;;5092801;28;20196;-67
2022/02/03 02:19:22;;;;;;;1.77;0.75;;;6.40;93.70;;;;;;5092403;28;20192;-67
2022/02/03 02:38:53;;;;;;;1.50;0.70;;;;;;;;;;5097809;28;20211;-67
2022/02/03 02:44:29;;;;;;;2.25;1.83;;;;;;;;;;5041674;28;21625;-67
2022/02/03 02:46:57;;;;;;;3.70;3.20;;;;;;;;;;5092294;28;20192;-71
2022/02/03 02:49:39;;;;;;;1.73;0.93;;;6.30;93.60;;;;;;5072008;28;20274;-67
2022/02/03 02:52:12;;;;;;;1.40;0.50;;;;;;;;;;5073272;28;20221;-67
2022/02/03 02:54:54;;;;;;;1.40;0.60;;;;;;;;;;5072317;28;20194;-67
2022/02/03 03:00:44;;;;;;;2.25;0.75;;;;;;;;;;5107134;28;20599;-67
2022/02/03 03:31:35;;;;;;;1.70;0.60;;;5.90;93.60;;;;;;5092091;28;20278;-66
2022/02/03 03:34:13;;;;;;;3.15;0.77;;;5.90;93.70;;;;;;5071789;28;20589;-67
2022/02/03 03:36:43;;;;;;;1.50;0.70;;;5.90;93.90;;;;;;5072278;28;20206;-67
2022/02/03 03:39:13;;;;;;;1.40;0.70;;;5.90;94.00;;;;;;5108220;28;20193;-66
2022/02/03 03:41:45;;;;;;;2.22;1.30;;;6.00;93.80;;;;;;5091905;28;20193;-70
2022/02/03 03:44:16;;;;;;;2.05;1.25;;;6.00;93.80;;;;;;5084575;28;20573;-67
2022/02/03 03:46:47;;;;;;;1.90;1.02;;;6.00;93.80;;;;;;5112360;28;20192;-66
2022/02/03 03:49:31;;;;;;;1.90;0.80;;;6.10;93.70;;;;;;5090957;28;20192;-66
2022/02/03 03:52:03;;;;;;;1.70;0.80;;;6.10;93.60;;;;;;5092112;28;20296;-67
2022/02/03 03:54:36;;;;;;;2.17;1.02;;;6.10;93.40;;;;;;5112284;28;20529;-66
2022/02/03 03:57:14;;;;;;;1.90;0.82;;;6.10;93.50;;;;;;5110667;28;20394;-66
2022/02/03 04:00:23;;;;;;;2.10;0.93;;;6.20;93.20;;;;;;5100712;28;20188;-66
2022/02/03 04:30:08;;;;;;;1.67;0.80;;;6.20;93.30;;;;;;5115718;28;20232;-67
2022/02/03 04:39:04;;;;;;;2.15;0.70;;;6.20;93.10;;;;;;5074709;28;20565;-66
2022/02/03 04:42:01;;;;;;;2.80;1.00;;;6.10;93.20;;;;;;5109847;28;20219;-67
2022/02/03 04:45:18;;;;;;;1.70;0.77;;;6.10;93.30;;;;;;5115511;28;20638;-67
2022/02/03 04:54:52;;;;;;;1.67;0.80;;;6.10;93.30;;;;;;5073598;28;20189;-69
2022/02/03 05:03:54;;;;;;;1.70;0.80;;;5.90;93.70;;;;;;5031681;28;20193;-68
2022/02/03 05:06:41;;;;;;;3.95;2.08;;;5.90;93.60;;;;;;5087884;28;20180;-67
2022/02/03 05:09:43;;;;;;;6.35;3.30;;;5.90;93.60;;;;;;5114823;28;20752;-67
2022/02/03 05:12:31;;;;;;;3.95;3.40;;;5.90;93.60;;;;;;5105056;28;20553;-67
2022/02/03 05:21:48;;;;;;;2.58;1.40;;;5.80;93.90;;;;;;5053797;28;20723;-66
2022/02/03 05:24:57;;;;;;;4.43;1.05;;;5.90;93.90;;;;;;5114837;27;20553;-67
2022/02/03 05:43:06;;;;;;;4.75;2.83;;;5.60;93.30;;;;;;5092285;28;20604;-67
2022/02/03 05:48:41;;;;;;;7.05;3.85;;;5.40;93.70;;;;;;5114364;28;20191;-66
2022/02/03 05:51:31;;;;;;;6.03;4.10;;;5.30;93.70;;;;;;5094675;28;20270;-67
2022/02/03 06:05:08;;;;;;;4.93;3.25;;;4.90;94.30;;;;;;5105237;28;20181;-66
2022/02/03 06:13:09;;;;;;;5.15;3.72;;;4.80;94.40;;;;;;5092164;28;20207;-67
2022/02/03 06:15:43;;;;;;;4.25;3.05;;;4.80;94.40;;;;;;5087372;28;20912;-67
2022/02/03 06:23:59;;;;;;;2.60;1.40;;;4.80;94.50;;;;;;5086225;28;20189;-70
2022/02/03 06:29:17;;;;;;;4.55;3.03;;;4.70;94.20;;;;;;5077905;28;20585;-67
2022/02/03 06:31:46;;;;;;;3.35;1.92;;;4.70;94.30;;;;;;5072359;28;20217;-67
2022/02/03 06:34:13;;;;;;;4.47;2.42;;;4.60;94.40;;;;;;5079294;28;20607;-67
2022/02/03 06:36:41;;;;;;;3.63;2.53;;;4.60;94.60;;;;;;5071909;28;20190;-67
2022/02/03 06:39:16;;;;;;;4.13;2.20;;;4.60;94.50;;;;;;5072913;28;20189;-67
2022/02/03 06:41:44;;;;;;;7.10;3.50;;;4.60;94.50;;;;;;5079636;28;20280;-67
2022/02/03 06:44:13;;;;;;;21.63;13.45;;;4.60;94.50;;;;;;5074993;28;20656;-66
2022/02/03 06:46:46;;;;;;;38.28;26.35;;;4.60;94.30;;;;;;5072024;28;20190;-67
2022/02/03 06:49:18;;;;;;;38.08;24.25;;;4.60;94.40;;;;;;5087251;28;20318;-67
2022/02/03 06:51:54;;;;;;;35.03;21.60;;;4.60;94.40;;;;;;5090807;28;20209;-67
2022/02/03 06:54:29;;;;;;;50.58;29.83;;;4.60;94.20;;;;;;5084275;28;20185;-67
2022/02/03 06:56:57;;;;;;;51.38;29.08;;;4.70;94.00;;;;;;5072431;28;20197;-67
2022/02/03 06:59:32;;;;;;;32.08;15.95;;;4.70;93.90;;;;;;5080542;28;20657;-67
2022/02/03 07:02:02;;;;;;;15.35;9.23;;;4.70;93.60;;;;;;5072282;28;20598;-67
2022/02/03 07:04:37;;;;;;;16.73;9.57;;;4.70;93.70;;;;;;5078605;28;20200;-67
2022/02/03 07:07:05;;;;;;;14.52;9.10;;;4.80;93.80;;;;;;5083567;28;20196;-66
2022/02/03 07:09:32;;;;;;;5.45;3.83;;;4.90;93.90;;;;;;5077491;28;20707;-67
2022/02/03 07:12:01;;;;;;;5.28;3.90;;;4.90;93.80;;;;;;5079025;28;20733;-67
2022/02/03 07:14:31;;;;;;;7.22;4.05;;;5.10;93.90;;;;;;5085586;28;20193;-67
2022/02/03 07:16:59;;;;;;;4.95;3.45;;;5.40;94.00;;;;;;5082119;28;20193;-67
2022/02/03 07:19:27;;;;;;;4.43;3.35;;;5.60;93.50;;;;;;5071638;28;20288;-67
2022/02/03 07:21:54;;;;;;;5.97;3.70;;;6.00;92.70;;;;;;5085217;28;20544;-67
2022/02/03 07:24:21;;;;;;;18.45;13.23;;;6.30;92.00;;;;;;5090049;28;20635;-67
2022/02/03 07:26:48;;;;;;;9.27;6.65;;;6.60;92.30;;;;;;5078963;28;20247;-67
2022/02/03 07:29:15;;;;;;;7.97;4.85;;;7.00;91.30;;;;;;5087443;28;20193;-68
2022/02/03 07:31:42;;;;;;;5.03;2.92;;;7.30;90.40;;;;;;5088848;28;20572;-67
2022/02/03 07:34:13;;;;;;;3.35;2.38;;;7.50;88.40;;;;;;5094407;28;20223;-67
2022/02/03 07:36:44;;;;;;;7.32;2.30;;;7.80;85.80;;;;;;5087507;28;20188;-68
2022/02/03 07:39:12;;;;;;;4.75;3.10;;;8.10;83.90;;;;;;5081449;28;20186;-67
2022/02/03 07:41:39;;;;;;;4.50;2.97;;;8.30;84.70;;;;;;5070196;28;20188;-67
2022/02/03 07:44:08;;;;;;;5.90;3.17;;;8.50;82.10;;;;;;5079209;28;20643;-67
2022/02/03 07:46:35;;;;;;;3.70;1.98;;;8.90;81.00;;;;;;5088500;28;20201;-68
2022/02/03 07:49:04;;;;;;;3.95;2.50;;;9.10;77.90;;;;;;5088410;28;20236;-67
2022/02/03 07:51:35;;;;;;;5.22;3.25;;;9.20;78.00;;;;;;5073421;28;20316;-67
2022/02/03 07:54:05;;;;;;;9.98;6.63;;;9.20;77.30;;;;;;5078417;28;20193;-67
2022/02/03 07:56:32;;;;;;;7.30;3.20;;;9.20;76.90;;;;;;5089136;28;20282;-67
2022/02/03 07:58:59;;;;;;;5.35;2.60;;;9.00;75.00;;;;;;5093966;28;20220;-67
2022/02/03 08:01:26;;;;;;;4.15;3.28;;;8.60;75.70;;;;;;5093269;28;20607;-67
2022/02/03 08:03:54;;;;;;;3.53;2.80;;;8.30;76.90;;;;;;5094754;28;20358;-67
2022/02/03 08:06:25;;;;;;;4.55;3.10;;;8.40;80.00;;;;;;5075054;28;20720;-67
2022/02/03 08:08:57;;;;;;;5.63;3.22;;;8.80;80.00;;;;;;5090042;28;20270;-67
2022/02/03 08:11:30;;;;;;;6.15;3.15;;;9.30;77.70;;;;;;5095759;28;20197;-68
2022/02/03 08:14:06;;;;;;;8.80;4.38;;;9.60;77.70;;;;;;5074810;28;20678;-68
2022/02/03 08:16:37;;;;;;;88.78;47.13;;;10.30;75.90;;;;;;5079381;28;20177;-67
2022/02/03 08:19:09;;;;;;;33.55;21.13;;;10.30;70.50;;;;;;5089306;28;20189;-67
2022/02/03 08:21:41;;;;;;;15.25;10.43;;;10.10;71.00;;;;;;5093041;28;20178;-67
2022/02/03 08:27:07;;;;;;;10.85;8.20;;;9.60;71.90;;;;;;5081915;28;20221;-67
2022/02/03 08:32:26;;;;;;;6.63;5.00;;;9.80;76.90;;;;;;5081761;28;20227;-68
2022/02/03 08:35:20;;;;;;;7.97;4.57;;;11.20;74.30;;;;;;5074710;28;20762;-67
2022/02/03 08:37:59;;;;;;;7.45;4.90;;;12.50;70.10;;;;;;5091351;28;20262;-67
2022/02/03 08:40:30;;;;;;;3.42;2.75;;;13.50;67.40;;;;;;5089640;28;20294;-66
2022/02/03 08:42:58;;;;;;;5.45;2.70;;;14.10;64.00;;;;;;5077477;28;20189;-67
2022/02/03 08:45:25;;;;;;;5.20;2.87;;;14.40;61.40;;;;;;5086552;28;20276;-66
2022/02/03 08:47:55;;;;;;;5.33;2.50;;;14.80;59.40;;;;;;5080698;28;20440;-70
2022/02/03 08:50:23;;;;;;;4.33;1.70;;;15.10;58.90;;;;;;5086171;28;20492;-67
2022/02/03 08:53:00;;;;;;;2.90;1.90;;;15.30;57.90;;;;;;5091992;28;20475;-68
2022/02/03 08:55:35;;;;;;;3.77;1.90;;;15.60;55.50;;;;;;5087355;28;20415;-67
2022/02/03 08:58:34;;;;;;;2.70;1.77;;;15.80;55.80;;;;;;5091958;28;20435;-69
2022/02/03 09:37:03;;;;;;;3.37;1.50;;;22.00;36.40;;;;;;5090938;28;20423;-69
2022/02/03 09:39:55;;;;;;;2.57;1.50;;;22.30;36.00;;;;;;5091509;28;20439;-68
2022/02/03 09:57:05;;;;;;;3.43;1.67;;;23.60;32.90;;;;;;5084930;28;20430;-70
2022/02/03 09:59:42;;;;;;;2.67;1.87;;;23.90;32.30;;;;;;5079382;28;20444;-68
2022/02/03 10:02:14;;;;;;;3.53;2.17;;;24.70;30.70;;;;;;5091449;28;20435;-68
2022/02/03 10:04:48;;;;;;;3.63;1.83;;;25.30;31.20;;;;;;5077190;28;20494;-69
2022/02/03 10:07:21;;;;;;;3.90;2.00;;;25.60;29.80;;;;;;5076946;28;20470;-68
2022/02/03 10:09:50;;;;;;;2.50;1.50;;;24.70;29.20;;;;;;5087265;28;20459;-68
2022/02/03 10:12:18;;;;;;;2.20;1.13;;;23.80;30.20;;;;;;5088206;28;20482;-68
2022/02/03 10:14:47;;;;;;;2.73;1.03;;;23.30;30.10;;;;;;5071413;28;20797;-69
2022/02/03 10:17:18;;;;;;;3.63;1.67;;;23.50;31.50;;;;;;5079155;28;20507;-68
2022/02/03 10:19:50;;;;;;;2.23;1.40;;;24.70;31.00;;;;;;5080025;28;21491;-68
2022/02/03 10:22:21;;;;;;;2.10;1.00;;;25.60;30.00;;;;;;5095497;28;20443;-70
2022/02/03 10:24:50;;;;;;;2.43;1.10;;;26.20;29.50;;;;;;5088114;28;20929;-68
2022/02/03 10:27:29;;;;;;;2.00;1.10;;;26.00;29.20;;;;;;5095471;28;20435;-68
2022/02/03 10:30:10;;;;;;;2.63;1.30;;;25.60;29.60;;;;;;5093070;28;20482;-68
2022/02/03 10:32:39;;;;;;;2.67;1.50;;;25.80;30.50;;;;;;5091310;28;20828;-68
2022/02/03 10:35:25;;;;;;;2.83;1.00;;;25.90;28.90;;;;;;5096978;28;20449;-68
2022/02/03 10:38:31;;;;;;;2.10;1.17;;;25.60;29.50;;;;;;5098008;28;20442;-68
2022/02/03 10:49:44;;;;;;;3.80;1.80;;;26.50;28.90;;;;;;5099769;28;20435;-71
2022/02/03 10:58:08;;;;;;;1.83;1.00;;;28.30;26.70;;;;;;5091467;28;20858;-68
2022/02/03 11:01:01;;;;;;;1.97;0.97;;;28.80;25.10;;;;;;5097969;28;20448;-68
2022/02/03 11:03:38;;;;;;;2.00;1.00;;;29.40;24.60;;;;;;5100225;28;20483;-68
2022/02/03 11:06:11;;;;;;;2.57;0.90;;;30.60;23.60;;;;;;5097717;28;20455;-68
2022/02/03 11:08:46;;;;;;;2.57;0.90;;;31.10;22.60;;;;;;5095327;28;20469;-69
2022/02/03 11:11:21;;;;;;;1.70;0.60;;;31.70;22.30;;;;;;5092677;28;20443;-68
2022/02/03 11:13:50;;;;;;;1.70;0.70;;;32.20;21.30;;;;;;5098357;28;20561;-68
2022/02/03 11:16:19;;;;;;;1.70;0.80;;;32.30;21.00;;;;;;5092596;28;20446;-68
2022/02/03 11:18:47;;;;;;;1.50;0.60;;;32.20;21.20;;;;;;5095591;28;20520;-68
2022/02/03 11:21:15;;;;;;;2.27;0.83;;;32.30;20.70;;;;;;5101700;28;20868;-69
2022/02/03 11:23:50;;;;;;;3.70;1.90;;;32.50;21.30;;;;;;5088456;28;20482;-68
2022/02/03 11:26:26;;;;;;;1.80;0.80;;;33.10;21.50;;;;;;5098043;28;20453;-68
2022/02/03 11:29:18;;;;;;;1.60;0.60;;;33.80;19.50;;;;;;5108534;28;20527;-68
2022/02/03 11:35:12;;;;;;;2.20;0.80;;;32.70;19.60;;;;;;5085840;28;20441;-70
2022/02/03 11:38:10;;;;;;;1.80;0.70;;;30.80;20.70;;;;;;5092068;28;20531;-74
2022/02/03 11:41:02;;;;;;;1.83;0.70;;;28.80;22.10;;;;;;5102349;28;20439;-68
2022/02/03 11:46:47;;;;;;;2.30;1.00;;;25.30;25.00;;;;;;5090778;28;20441;-69
2022/02/03 12:01:02;;;;;;;2.67;1.73;;;20.00;30.50;;;;;;5051375;28;20518;-69
2022/02/03 12:17:51;;;;;;;1.70;0.60;;;20.10;34.60;;;;;;5048550;28;20452;-70
2022/02/03 12:20:35;;;;;;;3.60;0.80;;;20.50;34.10;;;;;;5038787;28;20915;-69
2022/02/03 12:23:11;;;;;;;1.60;0.80;;;20.70;34.10;;;;;;5038329;28;20438;-71
2022/02/03 12:25:53;;;;;;;2.40;0.97;;;21.00;34.00;;;;;;5040592;28;20446;-68
2022/02/03 12:28:34;;;;;;;1.60;0.70;;;21.40;33.80;;;;;;5032033;28;20612;-71
2022/02/03 12:37:09;;;;;;;1.83;0.90;;;21.10;31.80;;;;;;5036131;28;20498;-69
2022/02/03 12:39:46;;;;;;;1.60;0.70;;;20.60;32.80;;;;;;5038468;28;20498;-72
2022/02/03 12:42:22;;;;;;;1.60;0.70;;;20.00;33.90;;;;;;5034056;28;20812;-69
2022/02/03 12:45:00;;;;;;;1.70;0.80;;;19.40;34.20;;;;;;5038689;28;20495;-71
2022/02/03 12:47:31;;;;;;;1.70;0.80;;;18.80;35.30;;;;;;5037047;28;20531;-68
2022/02/03 12:49:58;;;;;;;1.73;0.90;;;18.30;36.40;;;;;;5039221;28;20808;-69
2022/02/03 12:52:27;;;;;;;1.80;0.60;;;17.80;37.40;;;;;;5037262;28;20842;-68
2022/02/03 12:54:55;;;;;;;1.50;0.80;;;17.50;38.30;;;;;;5037240;28;20450;-68
2022/02/03 12:57:30;;;;;;;2.07;0.70;;;17.10;38.60;;;;;;5039327;28;20446;-69
2022/02/03 13:00:14;;;;;;;1.70;0.80;;;16.80;39.60;;;;;;5037105;28;20438;-68
2022/02/03 13:02:54;;;;;;;2.07;0.90;;;16.40;40.50;;;;;;5036923;28;20449;-71
2022/02/03 13:05:24;;;;;;;4.47;0.60;;;16.20;41.20;;;;;;5036618;28;20429;-70
2022/02/03 13:07:53;;;;;;;1.70;0.73;;;16.10;42.10;;;;;;5035530;28;21054;-71
2022/02/03 13:10:25;;;;;;;1.80;0.80;;;15.90;42.10;;;;;;5031036;28;20827;-69
2022/02/03 13:13:02;;;;;;;1.60;0.83;;;15.90;42.50;;;;;;5029277;28;20477;-68
2022/02/03 13:15:32;;;;;;;1.73;0.80;;;16.00;42.70;;;;;;5033677;28;20444;-69
2022/02/03 13:18:05;;;;;;;1.93;0.70;;;16.00;42.20;;;;;;5037538;28;20442;-68
2022/02/03 13:20:40;;;;;;;2.50;0.70;;;16.00;41.90;;;;;;5036598;28;20449;-70
2022/02/03 13:23:11;;;;;;;1.60;0.77;;;15.90;43.10;;;;;;5036534;28;20536;-68
2022/02/03 13:25:49;;;;;;;2.83;0.80;;;15.90;42.60;;;;;;5040287;28;20544;-69
2022/02/03 13:28:24;;;;;;;1.87;0.70;;;16.10;43.00;;;;;;5032971;28;20444;-68
2022/02/03 13:30:56;;;;;;;2.23;1.00;;;16.30;42.80;;;;;;5038132;28;20440;-69
2022/02/03 13:33:28;;;;;;;1.73;0.70;;;16.50;43.10;;;;;;5038870;28;20477;-68
2022/02/03 13:36:01;;;;;;;1.63;0.90;;;16.70;41.80;;;;;;5036310;28;20460;-68
2022/02/03 13:38:38;;;;;;;1.60;0.60;;;16.90;41.60;;;;;;5038282;28;20476;-69
2022/02/03 13:41:11;;;;;;;1.60;0.60;;;17.00;41.70;;;;;;5035608;28;20552;-68
2022/02/03 13:43:40;;;;;;;1.77;0.77;;;17.10;41.20;;;;;;5038084;28;20529;-69
2022/02/03 13:46:08;;;;;;;1.93;0.70;;;17.00;41.00;;;;;;5037257;28;20527;-68
2022/02/03 13:48:38;;;;;;;1.97;0.83;;;16.80;41.20;;;;;;5038419;28;21016;-69
2022/02/03 13:51:08;;;;;;;1.80;0.80;;;16.70;41.20;;;;;;5036021;28;20498;-69
2022/02/03 13:53:40;;;;;;;1.50;0.60;;;16.30;41.50;;;;;;5037669;28;20476;-69
2022/02/03 14:10:42;;;;;;;1.60;0.87;;;15.20;44.40;;;;;;5034618;28;20429;-68
2022/02/03 14:16:16;;;;;;;2.03;0.90;;;14.90;44.70;;;;;;5034914;28;20702;-68
2022/02/03 14:19:03;;;;;;;1.60;0.63;;;14.70;44.90;;;;;;5035691;28;20444;-69
2022/02/03 14:21:37;;;;;;;2.00;1.37;;;14.60;45.50;;;;;;5033914;28;20445;-69
2022/02/03 14:26:58;;;;;;;2.67;1.23;;;14.30;45.80;;;;;;5035112;28;20434;-72
2022/02/03 14:29:28;;;;;;;3.20;2.07;;;14.10;46.00;;;;;;5035320;28;20503;-68
2022/02/03 14:32:00;;;;;;;1.50;0.60;;;13.90;46.50;;;;;;5035878;28;20564;-70
2022/02/03 14:34:30;;;;;;;2.03;0.93;;;13.80;46.80;;;;;;5037309;28;20544;-68
2022/02/03 14:37:05;;;;;;;1.77;1.00;;;13.70;47.10;;;;;;5036376;28;20446;-68
2022/02/03 14:39:56;;;;;;;2.40;1.23;;;13.60;47.40;;;;;;5037556;28;20441;-68
2022/02/03 14:42:24;;;;;;;2.87;1.70;;;13.50;47.70;;;;;;5037913;28;20452;-68
2022/02/03 14:44:52;;;;;;;2.67;1.87;;;13.50;48.20;;;;;;5035827;28;20529;-68
2022/02/03 14:47:21;;;;;;;2.20;1.30;;;13.50;48.60;;;;;;5033755;28;20457;-68
2022/02/03 14:49:48;;;;;;;7.40;1.30;;;13.30;48.40;;;;;;5029766;28;20953;-69
2022/02/03 14:52:26;;;;;;;2.43;0.90;;;13.20;49.10;;;;;;5031600;28;20921;-68
2022/02/03 15:00:26;;;;;;;4.17;1.00;;;13.10;50.00;;;;;;5030309;28;20429;-68
2022/02/03 15:02:53;;;;;;;5.07;1.23;;;13.10;50.10;;;;;;5031301;28;20445;-69
2022/02/03 15:05:25;;;;;;;2.40;1.33;;;13.10;50.30;;;;;;5035127;28;20438;-68
2022/02/03 15:07:58;;;;;;;2.53;1.50;;;13.00;50.30;;;;;;5036311;28;20472;-68
2022/02/03 15:10:42;;;;;;;2.67;1.60;;;13.00;50.80;;;;;;5035684;28;20512;-68
2022/02/03 15:13:14;;;;;;;2.70;1.87;;;13.00;51.30;;;;;;5032187;28;20947;-68
2022/02/03 15:15:42;;;;;;;3.57;1.70;;;12.90;51.50;;;;;;5038376;28;20444;-68
2022/02/03 15:18:09;;;;;;;4.00;1.87;;;12.90;51.80;;;;;;5033697;28;20444;-68
2022/02/03 15:20:37;;;;;;;4.53;2.47;;;12.90;52.00;;;;;;5034633;28;20445;-68
2022/02/03 15:23:08;;;;;;;19.30;15.23;;;12.80;51.90;;;;;;5035830;28;20465;-69
2022/02/03 15:25:35;;;;;;;18.50;12.67;;;12.70;52.30;;;;;;5034301;28;20453;-69
2022/02/03 15:28:04;;;;;;;8.50;4.83;;;12.60;52.30;;;;;;5036126;28;20437;-68
2022/02/03 15:30:31;;;;;;;5.03;3.27;;;12.60;52.90;;;;;;5035057;28;20454;-68
2022/02/03 15:32:58;;;;;;;8.57;3.27;;;12.50;53.00;;;;;;5032307;28;20740;-68
2022/02/03 15:35:30;;;;;;;7.00;4.07;;;12.40;53.10;;;;;;5036519;28;20463;-68
2022/02/03 15:37:59;;;;;;;9.77;6.53;;;12.40;53.00;;;;;;5036555;28;20440;-68
2022/02/03 15:40:30;;;;;;;5.60;3.47;;;12.30;53.50;;;;;;5035083;28;20445;-68
2022/02/03 15:43:04;;;;;;;6.43;3.93;;;12.30;53.70;;;;;;5033500;28;20532;-68
2022/02/03 15:45:36;;;;;;;5.90;3.87;;;12.20;54.20;;;;;;5034734;28;20449;-68
2022/02/03 15:48:11;;;;;;;5.00;3.53;;;12.10;54.80;;;;;;5034555;28;20820;-70
2022/02/03 16:18:47;;;;;;;8.43;7.00;;;11.00;59.00;;;;;;5034264;28;20435;-68
2022/02/03 16:21:22;;;;;;;19.60;13.20;;;10.90;59.20;;;;;;5034139;28;20226;-68
2022/02/03 16:51:38;;;;;;;14.93;9.45;;;10.10;65.50;;;;;;5036617;28;20280;-68
2022/02/03 16:54:11;;;;;;;8.75;5.88;;;10.00;65.60;;;;;;5033221;28;20301;-68
2022/02/03 16:56:38;;;;;;;6.82;5.47;;;10.00;65.60;;;;;;5032711;28;20191;-68
2022/02/03 16:59:05;;;;;;;9.55;5.63;;;9.90;67.70;;;;;;5033136;28;20191;-68
2022/02/03 17:01:33;;;;;;;7.80;5.20;;;9.80;68.30;;;;;;5033259;28;20287;-67
2022/02/03 17:04:00;;;;;;;6.05;4.55;;;9.80;68.10;;;;;;5033131;28;20191;-69
2022/02/03 17:06:27;;;;;;;12.52;6.93;;;9.70;67.90;;;;;;5032855;28;20556;-68
2022/02/03 17:08:54;;;;;;;12.13;8.07;;;9.60;68.60;;;;;;5033060;28;20290;-67
2022/02/03 17:11:22;;;;;;;18.35;11.18;;;9.50;68.80;;;;;;5036323;28;20641;-69
2022/02/03 17:13:49;;;;;;;74.10;44.28;;;9.50;69.00;;;;;;5033919;28;20219;-69
2022/02/03 17:16:22;;;;;;;36.40;23.88;;;9.40;69.20;;;;;;5032445;28;20199;-68
2022/02/03 17:18:52;;;;;;;36.55;25.85;;;9.40;70.20;;;;;;5032771;28;20195;-68
2022/02/03 17:21:21;;;;;;;22.27;18.27;;;9.30;71.80;;;;;;5032320;28;20298;-68
2022/02/03 17:23:48;;;;;;;26.33;16.42;;;9.30;72.00;;;;;;5030224;28;20191;-69
2022/02/03 17:26:20;;;;;;;14.93;9.43;;;9.20;72.50;;;;;;5032214;28;20195;-68
2022/02/03 17:28:52;;;;;;;12.23;9.25;;;9.20;73.00;;;;;;5031444;28;20187;-69
2022/02/03 17:31:26;;;;;;;12.48;11.10;;;9.20;73.50;;;;;;5034254;28;20195;-68
2022/02/03 18:10:07;;;;;;;15.13;10.40;;;8.50;78.40;;;;;;5037581;28;20554;-68
2022/02/03 18:37:41;;;;;;;7.50;6.45;;;7.80;79.50;;;;;;5032646;28;20562;-69
2022/02/03 18:51:23;;;;;;;9.55;7.30;;;7.60;80.30;;;;;;5033841;28;20577;-69
2022/02/03 18:54:00;;;;;;;11.43;7.45;;;7.50;80.30;;;;;;5031600;28;20221;-71
2022/02/03 18:56:36;;;;;;;11.60;6.88;;;7.40;81.10;;;;;;5034851;28;20190;-69
2022/02/03 18:59:13;;;;;;;8.90;6.38;;;7.40;81.30;;;;;;5032099;28;20601;-68
2022/02/03 19:01:53;;;;;;;8.73;6.90;;;7.40;80.70;;;;;;5029936;28;20183;-68
2022/02/03 19:26:44;;;;;;;25.73;14.82;;;7.00;85.80;;;;;;5030499;28;20285;-68
2022/02/03 20:05:05;;;;;;;10.10;5.95;;;6.50;86.50;;;;;;5032504;28;20261;-71
2022/02/03 20:07:43;;;;;;;7.95;6.65;;;6.50;87.00;;;;;;5030214;28;20186;-68
2022/02/03 20:10:20;;;;;;;10.38;7.80;;;6.50;87.00;;;;;;5033511;28;20558;-68
2022/02/03 20:12:47;;;;;;;13.55;8.10;;;6.40;86.00;;;;;;5033503;28;20199;-69
2022/02/03 20:15:18;;;;;;;9.23;7.45;;;6.40;85.80;;;;;;5034094;28;20234;-68
2022/02/03 20:17:47;;;;;;;7.28;5.65;;;6.40;85.40;;;;;;5033231;28;20198;-68
2022/02/03 20:20:14;;;;;;;9.93;7.45;;;6.40;85.60;;;;;;5034039;28;20229;-68
2022/02/03 20:22:41;;;;;;;8.20;6.15;;;6.40;85.40;;;;;;5033092;28;20183;-68
2022/02/03 20:25:10;;;;;;;6.82;5.13;;;6.40;85.10;;;;;;5033202;28;20281;-69
2022/02/03 20:27:38;;;;;;;11.27;6.43;;;6.30;83.90;;;;;;5033290;28;20230;-69
2022/02/03 20:30:07;;;;;;;12.68;7.35;;;6.20;85.30;;;;;;5032190;28;20417;-68
2022/02/03 20:32:35;;;;;;;12.13;7.70;;;6.20;86.90;;;;;;5033702;28;20189;-69
2022/02/03 20:35:05;;;;;;;7.95;5.55;;;6.10;87.70;;;;;;5031594;28;20221;-68
2022/02/03 20:37:32;;;;;;;12.98;8.40;;;6.10;88.50;;;;;;5032814;28;20195;-68
2022/02/03 20:39:59;;;;;;;7.43;5.95;;;6.10;88.40;;;;;;5033178;28;20329;-70
2022/02/03 20:42:26;;;;;;;11.30;6.22;;;6.10;88.30;;;;;;5031878;28;20179;-69
2022/02/03 20:44:55;;;;;;;8.60;6.15;;;5.90;89.20;;;;;;5035029;28;20225;-70
2022/02/03 20:47:24;;;;;;;7.03;5.60;;;5.90;90.00;;;;;;5033386;28;20282;-68
2022/02/03 20:49:51;;;;;;;12.57;6.63;;;5.90;90.10;;;;;;5033360;28;20589;-69
2022/02/03 20:52:20;;;;;;;7.10;5.47;;;5.90;90.10;;;;;;5032542;28;20191;-69
2022/02/03 20:54:48;;;;;;;7.05;6.20;;;5.90;90.40;;;;;;5033117;28;20239;-68
2022/02/03 20:57:15;;;;;;;8.75;5.18;;;5.90;90.10;;;;;;5032225;28;20179;-68
2022/02/03 21:00:07;;;;;;;6.38;4.68;;;5.90;90.60;;;;;;5032641;28;20187;-68
2022/02/03 21:02:42;;;;;;;5.85;3.63;;;5.90;90.20;;;;;;5032106;28;20198;-69
2022/02/03 21:05:12;;;;;;;6.93;5.57;;;6.00;90.00;;;;;;5033244;28;20194;-68
2022/02/03 21:07:43;;;;;;;4.53;4.00;;;6.00;89.30;;;;;;5031989;28;20270;-68
2022/02/03 21:10:14;;;;;;;6.68;4.05;;;6.00;89.70;;;;;;5032960;28;20253;-68
2022/02/03 21:12:41;;;;;;;4.68;3.40;;;6.00;89.40;;;;;;5032109;28;20199;-68
2022/02/03 21:15:10;;;;;;;4.45;3.45;;;6.10;89.40;;;;;;5032532;28;20743;-68
2022/02/03 21:17:38;;;;;;;5.45;3.60;;;6.10;89.30;;;;;;5031766;28;20674;-68
2022/02/03 21:20:10;;;;;;;4.25;3.50;;;6.10;89.00;;;;;;5032746;28;20195;-68
2022/02/03 21:22:38;;;;;;;3.85;2.70;;;6.10;88.50;;;;;;5032318;28;20191;-68
2022/02/03 21:25:18;;;;;;;5.32;3.70;;;6.10;88.20;;;;;;5032210;28;20194;-68
2022/02/03 21:27:47;;;;;;;5.15;3.28;;;6.20;87.70;;;;;;5030630;28;20183;-68
2022/02/03 21:30:15;;;;;;;3.67;3.10;;;6.20;86.90;;;;;;5032176;28;20241;-68
2022/02/03 21:32:42;;;;;;;5.93;3.40;;;6.20;86.10;;;;;;5031750;28;20191;-69
2022/02/03 21:35:10;;;;;;;12.40;5.80;;;6.20;86.00;;;;;;5032341;28;20223;-68
2022/02/03 21:37:39;;;;;;;14.15;7.40;;;6.20;85.40;;;;;;5031605;28;20186;-68
2022/02/03 21:40:08;;;;;;;10.93;4.90;;;6.20;84.80;;;;;;5031536;28;20191;-68
2022/02/03 21:42:37;;;;;;;10.18;5.22;;;6.10;84.20;;;;;;5031353;28;20230;-68
2022/02/03 21:45:06;;;;;;;4.82;2.35;;;6.10;84.10;;;;;;5031909;28;20249;-68
2022/02/03 21:47:33;;;;;;;4.50;2.05;;;6.20;83.10;;;;;;5031586;28;20189;-68
2022/02/03 21:50:01;;;;;;;2.80;1.85;;;6.10;81.80;;;;;;5031824;28;20191;-67
2022/02/03 21:52:34;;;;;;;2.95;2.03;;;6.00;81.50;;;;;;5031453;28;20214;-68
2022/02/03 21:55:04;;;;;;;3.15;1.80;;;6.00;81.70;;;;;;5031075;28;20685;-68
2022/02/03 21:57:32;;;;;;;3.85;2.20;;;6.00;81.20;;;;;;5031682;28;20201;-68
2022/02/03 22:00:01;;;;;;;3.95;2.75;;;6.00;81.30;;;;;;5031865;28;20274;-68
2022/02/03 22:02:29;;;;;;;4.97;3.03;;;6.10;81.40;;;;;;5030948;28;20660;-69
2022/02/03 22:04:56;;;;;;;3.05;1.90;;;6.10;81.20;;;;;;5031086;28;20237;-69